sensor_id;sensor_type;location;lat;lon;timestamp;P1;durP1;ratioP1;P2;durP2;ratioP2
21862;SDS011;11096;51.338;12.524;2023-11-19T00:01:26;5.78;;;4.07;;
21862;SDS011;11096;51.338;12.524;2023-11-19T00:03:51;4.60;;;3.40;;
21862;SDS011;11096;51.338;12.524;2023-11-19T00:06:17;6.38;;;3.53;;
21862;SDS011;11096;51.338;12.524;2023-11-19T00:08:42;3.88;;;3.10;;
21862;SDS011;11096;51.338;12.524;2023-11-19T00:11:08;4.70;;;3.33;;
21862;SDS011;11096;51.338;12.524;2023-11-19T00:13:34;3.60;;;2.72;;
21862;SDS011;11096;51.338;12.524;2023-11-19T00:15:59;4.53;;;2.92;;
21862;SDS011;11096;51.338;12.524;2023-11-19T00:18:25;3.22;;;2.55;;
21862;SDS011;11096;51.338;12.524;2023-11-19T00:20:50;3.78;;;2.85;;
21862;SDS011;11096;51.338;12.524;2023-11-19T00:23:16;3.30;;;2.58;;
21862;SDS011;11096;51.338;12.524;2023-11-19T00:25:41;4.85;;;2.58;;
21862;SDS011;11096;51.338;12.524;2023-11-19T00:28:07;4.25;;;2.47;;
21862;SDS011;11096;51.338;12.524;2023-11-19T00:30:33;2.58;;;2.38;;
21862;SDS011;11096;51.338;12.524;2023-11-19T00:32:58;3.20;;;2.35;;
21862;SDS011;11096;51.338;12.524;2023-11-19T00:35:23;3.20;;;2.50;;
21862;SDS011;11096;51.338;12.524;2023-11-19T00:37:49;4.15;;;2.20;;
21862;SDS011;11096;51.338;12.524;2023-11-19T00:40:15;3.50;;;2.90;;
21862;SDS011;11096;51.338;12.524;2023-11-19T00:42:43;3.30;;;2.53;;
21862;SDS011;11096;51.338;12.524;2023-11-19T00:45:09;3.78;;;2.53;;
21862;SDS011;11096;51.338;12.524;2023-11-19T00:47:34;4.75;;;3.03;;
21862;SDS011;11096;51.338;12.524;2023-11-19T00:50:00;4.25;;;3.08;;
21862;SDS011;11096;51.338;12.524;2023-11-19T00:52:26;4.38;;;2.42;;
21862;SDS011;11096;51.338;12.524;2023-11-19T00:54:52;6.38;;;2.63;;
21862;SDS011;11096;51.338;12.524;2023-11-19T00:57:17;4.75;;;2.97;;
21862;SDS011;11096;51.338;12.524;2023-11-19T00:59:42;3.95;;;2.92;;
21862;SDS011;11096;51.338;12.524;2023-11-19T01:02:08;3.80;;;2.45;;
21862;SDS011;11096;51.338;12.524;2023-11-19T01:04:34;3.45;;;2.35;;
21862;SDS011;11096;51.338;12.524;2023-11-19T01:07:03;3.40;;;2.58;;
21862;SDS011;11096;51.338;12.524;2023-11-19T01:09:30;2.60;;;2.13;;
21862;SDS011;11096;51.338;12.524;2023-11-19T01:11:57;3.35;;;2.95;;
21862;SDS011;11096;51.338;12.524;2023-11-19T01:14:25;2.20;;;1.80;;
21862;SDS011;11096;51.338;12.524;2023-11-19T01:16:50;2.70;;;2.00;;
21862;SDS011;11096;51.338;12.524;2023-11-19T01:19:16;2.72;;;2.28;;
21862;SDS011;11096;51.338;12.524;2023-11-19T01:21:41;2.03;;;1.90;;
21862;SDS011;11096;51.338;12.524;2023-11-19T01:24:06;2.78;;;2.00;;
21862;SDS011;11096;51.338;12.524;2023-11-19T01:26:34;1.90;;;1.42;;
21862;SDS011;11096;51.338;12.524;2023-11-19T01:29:00;1.77;;;1.20;;
21862;SDS011;11096;51.338;12.524;2023-11-19T01:31:26;1.38;;;1.27;;
21862;SDS011;11096;51.338;12.524;2023-11-19T01:33:51;1.83;;;1.45;;
21862;SDS011;11096;51.338;12.524;2023-11-19T01:36:17;1.25;;;1.15;;
21862;SDS011;11096;51.338;12.524;2023-11-19T01:38:42;1.63;;;1.50;;
21862;SDS011;11096;51.338;12.524;2023-11-19T01:41:08;1.10;;;1.00;;
21862;SDS011;11096;51.338;12.524;2023-11-19T01:43:37;2.05;;;1.25;;
21862;SDS011;11096;51.338;12.524;2023-11-19T01:46:06;1.65;;;1.42;;
21862;SDS011;11096;51.338;12.524;2023-11-19T01:48:34;3.00;;;1.50;;
21862;SDS011;11096;51.338;12.524;2023-11-19T01:51:02;1.45;;;1.27;;
21862;SDS011;11096;51.338;12.524;2023-11-19T01:53:29;1.52;;;1.42;;
21862;SDS011;11096;51.338;12.524;2023-11-19T01:55:55;2.25;;;1.65;;
21862;SDS011;11096;51.338;12.524;2023-11-19T01:58:22;1.85;;;1.67;;
21862;SDS011;11096;51.338;12.524;2023-11-19T02:00:48;1.73;;;1.52;;
21862;SDS011;11096;51.338;12.524;2023-11-19T02:03:13;1.88;;;1.60;;
21862;SDS011;11096;51.338;12.524;2023-11-19T02:05:39;2.22;;;2.00;;
21862;SDS011;11096;51.338;12.524;2023-11-19T02:08:05;2.10;;;1.90;;
21862;SDS011;11096;51.338;12.524;2023-11-19T02:10:30;1.65;;;1.55;;
21862;SDS011;11096;51.338;12.524;2023-11-19T02:12:57;2.53;;;2.00;;
21862;SDS011;11096;51.338;12.524;2023-11-19T02:15:23;2.53;;;2.08;;
21862;SDS011;11096;51.338;12.524;2023-11-19T02:17:50;1.92;;;1.75;;
21862;SDS011;11096;51.338;12.524;2023-11-19T02:20:15;2.17;;;1.98;;
21862;SDS011;11096;51.338;12.524;2023-11-19T02:22:41;2.30;;;1.75;;
21862;SDS011;11096;51.338;12.524;2023-11-19T02:25:07;2.38;;;2.03;;
21862;SDS011;11096;51.338;12.524;2023-11-19T02:27:53;2.60;;;2.40;;
21862;SDS011;11096;51.338;12.524;2023-11-19T02:30:22;7.63;;;2.50;;
21862;SDS011;11096;51.338;12.524;2023-11-19T02:32:57;4.28;;;2.38;;
21862;SDS011;11096;51.338;12.524;2023-11-19T02:35:30;3.90;;;2.03;;
21862;SDS011;11096;51.338;12.524;2023-11-19T02:37:57;2.47;;;2.28;;
21862;SDS011;11096;51.338;12.524;2023-11-19T02:40:24;3.40;;;2.45;;
21862;SDS011;11096;51.338;12.524;2023-11-19T02:42:50;3.75;;;2.08;;
21862;SDS011;11096;51.338;12.524;2023-11-19T02:45:19;5.07;;;2.60;;
21862;SDS011;11096;51.338;12.524;2023-11-19T02:47:44;5.38;;;2.75;;
21862;SDS011;11096;51.338;12.524;2023-11-19T02:50:10;3.35;;;2.90;;
21862;SDS011;11096;51.338;12.524;2023-11-19T02:52:43;3.70;;;2.75;;
21862;SDS011;11096;51.338;12.524;2023-11-19T02:55:10;3.15;;;2.85;;
21862;SDS011;11096;51.338;12.524;2023-11-19T02:57:40;5.28;;;2.97;;
21862;SDS011;11096;51.338;12.524;2023-11-19T03:00:16;3.63;;;3.00;;
21862;SDS011;11096;51.338;12.524;2023-11-19T03:02:42;4.40;;;3.45;;
21862;SDS011;11096;51.338;12.524;2023-11-19T03:05:13;4.22;;;3.50;;
21862;SDS011;11096;51.338;12.524;2023-11-19T03:07:42;8.13;;;3.33;;
21862;SDS011;11096;51.338;12.524;2023-11-19T03:10:11;5.82;;;3.55;;
21862;SDS011;11096;51.338;12.524;2023-11-19T03:12:43;6.88;;;3.58;;
21862;SDS011;11096;51.338;12.524;2023-11-19T03:15:10;3.63;;;2.92;;
21862;SDS011;11096;51.338;12.524;2023-11-19T03:17:38;5.68;;;3.13;;
21862;SDS011;11096;51.338;12.524;2023-11-19T03:20:07;4.28;;;3.42;;
21862;SDS011;11096;51.338;12.524;2023-11-19T03:22:40;4.78;;;3.63;;
21862;SDS011;11096;51.338;12.524;2023-11-19T03:25:06;5.35;;;3.15;;
21862;SDS011;11096;51.338;12.524;2023-11-19T03:27:34;5.53;;;3.20;;
21862;SDS011;11096;51.338;12.524;2023-11-19T03:30:07;4.40;;;3.38;;
21862;SDS011;11096;51.338;12.524;2023-11-19T03:32:36;4.57;;;3.20;;
21862;SDS011;11096;51.338;12.524;2023-11-19T03:35:02;7.18;;;3.53;;
21862;SDS011;11096;51.338;12.524;2023-11-19T03:37:29;3.35;;;2.97;;
21862;SDS011;11096;51.338;12.524;2023-11-19T03:39:56;5.35;;;3.00;;
21862;SDS011;11096;51.338;12.524;2023-11-19T03:42:24;3.90;;;2.83;;
21862;SDS011;11096;51.338;12.524;2023-11-19T03:44:53;6.78;;;3.30;;
21862;SDS011;11096;51.338;12.524;2023-11-19T03:47:19;6.90;;;3.50;;
21862;SDS011;11096;51.338;12.524;2023-11-19T03:49:48;4.15;;;3.13;;
21862;SDS011;11096;51.338;12.524;2023-11-19T03:52:14;6.32;;;3.22;;
21862;SDS011;11096;51.338;12.524;2023-11-19T03:54:40;6.15;;;3.10;;
21862;SDS011;11096;51.338;12.524;2023-11-19T03:57:05;4.35;;;3.25;;
21862;SDS011;11096;51.338;12.524;2023-11-19T03:59:30;4.10;;;2.80;;
21862;SDS011;11096;51.338;12.524;2023-11-19T04:01:56;3.60;;;3.13;;
21862;SDS011;11096;51.338;12.524;2023-11-19T04:04:25;4.25;;;2.88;;
21862;SDS011;11096;51.338;12.524;2023-11-19T04:06:51;5.57;;;3.83;;
21862;SDS011;11096;51.338;12.524;2023-11-19T04:09:16;5.07;;;3.13;;
21862;SDS011;11096;51.338;12.524;2023-11-19T04:11:42;3.75;;;3.08;;
21862;SDS011;11096;51.338;12.524;2023-11-19T04:14:07;4.10;;;3.13;;
21862;SDS011;11096;51.338;12.524;2023-11-19T04:16:33;13.65;;;3.75;;
21862;SDS011;11096;51.338;12.524;2023-11-19T04:18:58;4.45;;;3.13;;
21862;SDS011;11096;51.338;12.524;2023-11-19T04:21:23;5.45;;;3.33;;
21862;SDS011;11096;51.338;12.524;2023-11-19T04:23:49;4.50;;;2.83;;
21862;SDS011;11096;51.338;12.524;2023-11-19T04:26:14;4.07;;;2.83;;
21862;SDS011;11096;51.338;12.524;2023-11-19T04:28:40;6.20;;;3.25;;
21862;SDS011;11096;51.338;12.524;2023-11-19T04:31:06;4.97;;;2.70;;
21862;SDS011;11096;51.338;12.524;2023-11-19T04:33:31;4.65;;;2.78;;
21862;SDS011;11096;51.338;12.524;2023-11-19T04:35:57;4.80;;;2.45;;
21862;SDS011;11096;51.338;12.524;2023-11-19T04:38:22;3.10;;;2.50;;
21862;SDS011;11096;51.338;12.524;2023-11-19T04:40:47;3.75;;;2.70;;
21862;SDS011;11096;51.338;12.524;2023-11-19T04:43:13;4.07;;;2.50;;
21862;SDS011;11096;51.338;12.524;2023-11-19T04:45:38;4.82;;;2.50;;
21862;SDS011;11096;51.338;12.524;2023-11-19T04:48:05;2.80;;;2.15;;
21862;SDS011;11096;51.338;12.524;2023-11-19T04:50:30;3.97;;;2.05;;
21862;SDS011;11096;51.338;12.524;2023-11-19T04:52:55;2.75;;;2.30;;
21862;SDS011;11096;51.338;12.524;2023-11-19T04:55:21;2.97;;;2.13;;
21862;SDS011;11096;51.338;12.524;2023-11-19T04:57:47;2.45;;;1.92;;
21862;SDS011;11096;51.338;12.524;2023-11-19T05:00:13;2.40;;;1.90;;
21862;SDS011;11096;51.338;12.524;2023-11-19T05:02:38;1.75;;;1.50;;
21862;SDS011;11096;51.338;12.524;2023-11-19T05:05:04;2.10;;;1.90;;
21862;SDS011;11096;51.338;12.524;2023-11-19T05:07:30;1.65;;;1.52;;
21862;SDS011;11096;51.338;12.524;2023-11-19T05:09:55;1.48;;;1.27;;
21862;SDS011;11096;51.338;12.524;2023-11-19T05:12:21;1.50;;;1.40;;
21862;SDS011;11096;51.338;12.524;2023-11-19T05:14:47;4.20;;;1.30;;
21862;SDS011;11096;51.338;12.524;2023-11-19T05:17:16;3.75;;;1.15;;
21862;SDS011;11096;51.338;12.524;2023-11-19T05:19:43;2.72;;;1.20;;
21862;SDS011;11096;51.338;12.524;2023-11-19T05:22:08;1.80;;;1.30;;
21862;SDS011;11096;51.338;12.524;2023-11-19T05:24:34;4.72;;;1.15;;
21862;SDS011;11096;51.338;12.524;2023-11-19T05:27:00;2.67;;;1.25;;
21862;SDS011;11096;51.338;12.524;2023-11-19T05:29:26;1.23;;;1.00;;
21862;SDS011;11096;51.338;12.524;2023-11-19T05:31:52;1.30;;;1.08;;
21862;SDS011;11096;51.338;12.524;2023-11-19T05:34:20;1.23;;;0.90;;
21862;SDS011;11096;51.338;12.524;2023-11-19T05:36:46;1.70;;;1.00;;
21862;SDS011;11096;51.338;12.524;2023-11-19T05:39:11;1.17;;;0.85;;
21862;SDS011;11096;51.338;12.524;2023-11-19T05:41:36;1.02;;;0.88;;
21862;SDS011;11096;51.338;12.524;2023-11-19T05:44:02;0.93;;;0.90;;
21862;SDS011;11096;51.338;12.524;2023-11-19T05:46:27;0.93;;;0.73;;
21862;SDS011;11096;51.338;12.524;2023-11-19T05:48:53;1.42;;;0.98;;
21862;SDS011;11096;51.338;12.524;2023-11-19T05:51:18;1.33;;;0.70;;
21862;SDS011;11096;51.338;12.524;2023-11-19T05:53:44;1.35;;;0.90;;
21862;SDS011;11096;51.338;12.524;2023-11-19T05:56:15;1.17;;;0.75;;
21862;SDS011;11096;51.338;12.524;2023-11-19T05:58:41;1.42;;;0.90;;
21862;SDS011;11096;51.338;12.524;2023-11-19T06:01:06;1.30;;;1.10;;
21862;SDS011;11096;51.338;12.524;2023-11-19T06:03:32;1.20;;;1.00;;
21862;SDS011;11096;51.338;12.524;2023-11-19T06:05:58;1.80;;;1.10;;
21862;SDS011;11096;51.338;12.524;2023-11-19T06:08:23;2.13;;;1.10;;
21862;SDS011;11096;51.338;12.524;2023-11-19T06:10:50;1.63;;;0.88;;
21862;SDS011;11096;51.338;12.524;2023-11-19T06:13:16;1.40;;;0.90;;
21862;SDS011;11096;51.338;12.524;2023-11-19T06:15:42;1.10;;;0.90;;
21862;SDS011;11096;51.338;12.524;2023-11-19T06:18:08;1.52;;;0.98;;
21862;SDS011;11096;51.338;12.524;2023-11-19T06:20:33;1.20;;;0.90;;
21862;SDS011;11096;51.338;12.524;2023-11-19T06:22:59;1.00;;;0.90;;
21862;SDS011;11096;51.338;12.524;2023-11-19T06:25:25;2.17;;;0.88;;
21862;SDS011;11096;51.338;12.524;2023-11-19T06:27:51;1.40;;;0.85;;
21862;SDS011;11096;51.338;12.524;2023-11-19T06:30:18;1.85;;;0.98;;
21862;SDS011;11096;51.338;12.524;2023-11-19T06:32:43;63.10;;;9.65;;
21862;SDS011;11096;51.338;12.524;2023-11-19T06:35:09;2.58;;;1.00;;
21862;SDS011;11096;51.338;12.524;2023-11-19T06:37:35;1.70;;;1.17;;
21862;SDS011;11096;51.338;12.524;2023-11-19T06:40:00;0.50;;;0.50;;
21862;SDS011;11096;51.338;12.524;2023-11-19T06:42:26;0.98;;;0.90;;
21862;SDS011;11096;51.338;12.524;2023-11-19T06:44:52;1.73;;;0.70;;
21862;SDS011;11096;51.338;12.524;2023-11-19T06:47:17;1.83;;;0.70;;
21862;SDS011;11096;51.338;12.524;2023-11-19T06:49:43;2.78;;;0.80;;
21862;SDS011;11096;51.338;12.524;2023-11-19T06:52:09;1.63;;;0.90;;
21862;SDS011;11096;51.338;12.524;2023-11-19T06:54:34;0.63;;;0.55;;
21862;SDS011;11096;51.338;12.524;2023-11-19T06:57:00;3.97;;;0.60;;
21862;SDS011;11096;51.338;12.524;2023-11-19T06:59:26;0.65;;;0.60;;
21862;SDS011;11096;51.338;12.524;2023-11-19T07:01:51;2.17;;;0.60;;
21862;SDS011;11096;51.338;12.524;2023-11-19T07:04:16;0.77;;;0.70;;
21862;SDS011;11096;51.338;12.524;2023-11-19T07:06:42;0.60;;;0.60;;
21862;SDS011;11096;51.338;12.524;2023-11-19T07:09:07;0.60;;;0.60;;
21862;SDS011;11096;51.338;12.524;2023-11-19T07:11:37;0.55;;;0.50;;
21862;SDS011;11096;51.338;12.524;2023-11-19T07:14:06;2.22;;;0.80;;
21862;SDS011;11096;51.338;12.524;2023-11-19T07:16:34;1.42;;;0.50;;
21862;SDS011;11096;51.338;12.524;2023-11-19T07:19:02;0.75;;;0.60;;
21862;SDS011;11096;51.338;12.524;2023-11-19T07:21:28;0.60;;;0.50;;
21862;SDS011;11096;51.338;12.524;2023-11-19T07:23:54;0.90;;;0.57;;
21862;SDS011;11096;51.338;12.524;2023-11-19T07:26:20;0.60;;;0.60;;
21862;SDS011;11096;51.338;12.524;2023-11-19T07:28:46;0.77;;;0.70;;
21862;SDS011;11096;51.338;12.524;2023-11-19T07:31:12;0.68;;;0.40;;
21862;SDS011;11096;51.338;12.524;2023-11-19T07:33:39;0.70;;;0.50;;
21862;SDS011;11096;51.338;12.524;2023-11-19T07:36:07;0.47;;;0.47;;
21862;SDS011;11096;51.338;12.524;2023-11-19T07:38:33;1.05;;;0.70;;
21862;SDS011;11096;51.338;12.524;2023-11-19T07:40:58;3.38;;;0.60;;
21862;SDS011;11096;51.338;12.524;2023-11-19T07:43:23;0.60;;;0.43;;
21862;SDS011;11096;51.338;12.524;2023-11-19T07:45:49;1.02;;;0.60;;
21862;SDS011;11096;51.338;12.524;2023-11-19T07:48:14;0.43;;;0.43;;
21862;SDS011;11096;51.338;12.524;2023-11-19T07:50:40;2.15;;;0.60;;
21862;SDS011;11096;51.338;12.524;2023-11-19T07:53:06;0.40;;;0.40;;
21862;SDS011;11096;51.338;12.524;2023-11-19T07:55:32;1.00;;;0.45;;
21862;SDS011;11096;51.338;12.524;2023-11-19T07:57:58;0.80;;;0.55;;
21862;SDS011;11096;51.338;12.524;2023-11-19T08:00:23;2.00;;;0.50;;
21862;SDS011;11096;51.338;12.524;2023-11-19T08:02:49;1.38;;;0.55;;
21862;SDS011;11096;51.338;12.524;2023-11-19T08:05:14;1.40;;;0.68;;
21862;SDS011;11096;51.338;12.524;2023-11-19T08:07:39;1.92;;;0.60;;
21862;SDS011;11096;51.338;12.524;2023-11-19T08:10:05;0.95;;;0.70;;
21862;SDS011;11096;51.338;12.524;2023-11-19T08:12:34;1.50;;;0.73;;
21862;SDS011;11096;51.338;12.524;2023-11-19T08:15:01;1.42;;;1.10;;
21862;SDS011;11096;51.338;12.524;2023-11-19T08:17:30;0.60;;;0.60;;
21862;SDS011;11096;51.338;12.524;2023-11-19T08:19:55;2.50;;;0.82;;
21862;SDS011;11096;51.338;12.524;2023-11-19T08:22:21;1.98;;;0.70;;
21862;SDS011;11096;51.338;12.524;2023-11-19T08:24:47;2.75;;;0.73;;
21862;SDS011;11096;51.338;12.524;2023-11-19T08:27:13;2.17;;;0.70;;
21862;SDS011;11096;51.338;12.524;2023-11-19T08:29:38;2.90;;;0.82;;
21862;SDS011;11096;51.338;12.524;2023-11-19T08:32:04;2.42;;;0.68;;
21862;SDS011;11096;51.338;12.524;2023-11-19T08:34:29;4.30;;;0.93;;
21862;SDS011;11096;51.338;12.524;2023-11-19T08:36:55;1.35;;;0.80;;
21862;SDS011;11096;51.338;12.524;2023-11-19T08:39:21;3.67;;;0.82;;
21862;SDS011;11096;51.338;12.524;2023-11-19T08:41:47;1.10;;;0.75;;
21862;SDS011;11096;51.338;12.524;2023-11-19T08:44:13;1.67;;;0.80;;
21862;SDS011;11096;51.338;12.524;2023-11-19T08:46:38;1.98;;;1.10;;
21862;SDS011;11096;51.338;12.524;2023-11-19T08:49:05;2.85;;;0.90;;
21862;SDS011;11096;51.338;12.524;2023-11-19T08:51:31;2.90;;;0.90;;
21862;SDS011;11096;51.338;12.524;2023-11-19T08:53:56;3.97;;;1.27;;
21862;SDS011;11096;51.338;12.524;2023-11-19T08:56:22;1.85;;;0.95;;
21862;SDS011;11096;51.338;12.524;2023-11-19T08:58:48;2.22;;;1.20;;
21862;SDS011;11096;51.338;12.524;2023-11-19T09:01:13;2.33;;;1.17;;
21862;SDS011;11096;51.338;12.524;2023-11-19T09:03:38;1.30;;;0.93;;
21862;SDS011;11096;51.338;12.524;2023-11-19T09:06:04;2.03;;;1.33;;
21862;SDS011;11096;51.338;12.524;2023-11-19T09:08:30;2.72;;;0.80;;
21862;SDS011;11096;51.338;12.524;2023-11-19T09:10:55;2.03;;;0.77;;
21862;SDS011;11096;51.338;12.524;2023-11-19T09:13:20;0.90;;;0.57;;
21862;SDS011;11096;51.338;12.524;2023-11-19T09:15:46;2.80;;;0.93;;
21862;SDS011;11096;51.338;12.524;2023-11-19T09:18:11;1.20;;;0.60;;
21862;SDS011;11096;51.338;12.524;2023-11-19T09:20:36;4.10;;;0.70;;
21862;SDS011;11096;51.338;12.524;2023-11-19T09:23:04;2.15;;;0.68;;
21862;SDS011;11096;51.338;12.524;2023-11-19T09:25:30;1.48;;;0.73;;
21862;SDS011;11096;51.338;12.524;2023-11-19T09:27:56;2.70;;;0.73;;
21862;SDS011;11096;51.338;12.524;2023-11-19T09:30:21;2.28;;;0.93;;
21862;SDS011;11096;51.338;12.524;2023-11-19T09:32:47;3.60;;;0.60;;
21862;SDS011;11096;51.338;12.524;2023-11-19T09:35:13;2.00;;;0.75;;
21862;SDS011;11096;51.338;12.524;2023-11-19T09:37:39;4.43;;;0.80;;
21862;SDS011;11096;51.338;12.524;2023-11-19T09:40:05;3.45;;;0.82;;
21862;SDS011;11096;51.338;12.524;2023-11-19T09:42:36;3.03;;;0.77;;
21862;SDS011;11096;51.338;12.524;2023-11-19T09:45:12;1.85;;;0.88;;
21862;SDS011;11096;51.338;12.524;2023-11-19T09:47:42;1.25;;;0.77;;
21862;SDS011;11096;51.338;12.524;2023-11-19T09:50:10;2.92;;;0.85;;
21862;SDS011;11096;51.338;12.524;2023-11-19T09:52:39;2.60;;;0.85;;
21862;SDS011;11096;51.338;12.524;2023-11-19T09:55:04;1.45;;;0.80;;
21862;SDS011;11096;51.338;12.524;2023-11-19T09:57:30;2.42;;;0.77;;
21862;SDS011;11096;51.338;12.524;2023-11-19T09:59:57;4.70;;;1.00;;
21862;SDS011;11096;51.338;12.524;2023-11-19T10:02:31;4.53;;;1.17;;
21862;SDS011;11096;51.338;12.524;2023-11-19T10:04:59;2.03;;;0.80;;
21862;SDS011;11096;51.338;12.524;2023-11-19T10:07:28;2.67;;;0.90;;
21862;SDS011;11096;51.338;12.524;2023-11-19T10:09:53;4.50;;;1.08;;
21862;SDS011;11096;51.338;12.524;2023-11-19T10:12:19;2.97;;;1.35;;
21862;SDS011;11096;51.338;12.524;2023-11-19T10:14:44;3.08;;;1.20;;
21862;SDS011;11096;51.338;12.524;2023-11-19T10:17:11;5.63;;;1.63;;
21862;SDS011;11096;51.338;12.524;2023-11-19T10:19:36;2.13;;;1.25;;
21862;SDS011;11096;51.338;12.524;2023-11-19T10:22:04;3.97;;;0.98;;
21862;SDS011;11096;51.338;12.524;2023-11-19T10:24:31;2.70;;;1.13;;
21862;SDS011;11096;51.338;12.524;2023-11-19T10:26:59;2.33;;;0.80;;
21862;SDS011;11096;51.338;12.524;2023-11-19T10:29:24;3.25;;;1.10;;
21862;SDS011;11096;51.338;12.524;2023-11-19T10:31:59;3.03;;;1.13;;
21862;SDS011;11096;51.338;12.524;2023-11-19T10:34:27;4.53;;;1.17;;
21862;SDS011;11096;51.338;12.524;2023-11-19T10:36:53;3.05;;;1.10;;
21862;SDS011;11096;51.338;12.524;2023-11-19T10:39:18;4.35;;;1.30;;
21862;SDS011;11096;51.338;12.524;2023-11-19T10:41:45;4.38;;;1.23;;
21862;SDS011;11096;51.338;12.524;2023-11-19T10:44:11;7.30;;;1.45;;
21862;SDS011;11096;51.338;12.524;2023-11-19T10:46:37;5.68;;;1.30;;
21862;SDS011;11096;51.338;12.524;2023-11-19T10:49:04;1.60;;;1.00;;
21862;SDS011;11096;51.338;12.524;2023-11-19T10:51:31;2.83;;;0.98;;
21862;SDS011;11096;51.338;12.524;2023-11-19T10:53:59;3.35;;;1.20;;
21862;SDS011;11096;51.338;12.524;2023-11-19T10:56:30;2.08;;;1.10;;
21862;SDS011;11096;51.338;12.524;2023-11-19T10:58:57;2.83;;;1.10;;
21862;SDS011;11096;51.338;12.524;2023-11-19T11:01:25;3.70;;;1.00;;
21862;SDS011;11096;51.338;12.524;2023-11-19T11:03:55;3.88;;;0.90;;
21862;SDS011;11096;51.338;12.524;2023-11-19T11:06:25;4.10;;;1.05;;
21862;SDS011;11096;51.338;12.524;2023-11-19T11:08:52;3.70;;;0.80;;
21862;SDS011;11096;51.338;12.524;2023-11-19T11:11:19;3.33;;;1.15;;
21862;SDS011;11096;51.338;12.524;2023-11-19T11:13:48;5.15;;;0.93;;
21862;SDS011;11096;51.338;12.524;2023-11-19T11:16:15;3.63;;;1.10;;
21862;SDS011;11096;51.338;12.524;2023-11-19T11:18:44;4.05;;;0.98;;
21862;SDS011;11096;51.338;12.524;2023-11-19T11:21:14;6.35;;;1.35;;
21862;SDS011;11096;51.338;12.524;2023-11-19T11:34:52;8.35;;;1.77;;
21862;SDS011;11096;51.338;12.524;2023-11-19T11:37:30;6.18;;;1.75;;
21862;SDS011;11096;51.338;12.524;2023-11-19T11:40:00;7.45;;;1.63;;
21862;SDS011;11096;51.338;12.524;2023-11-19T11:42:36;4.25;;;1.40;;
21862;SDS011;11096;51.338;12.524;2023-11-19T11:45:08;6.05;;;1.50;;
21862;SDS011;11096;51.338;12.524;2023-11-19T11:50:07;9.90;;;2.72;;
21862;SDS011;11096;51.338;12.524;2023-11-19T11:52:34;7.10;;;1.90;;
21862;SDS011;11096;51.338;12.524;2023-11-19T11:55:23;9.23;;;2.53;;
21862;SDS011;11096;51.338;12.524;2023-11-19T11:58:02;9.05;;;2.55;;
21862;SDS011;11096;51.338;12.524;2023-11-19T12:02:55;5.18;;;1.75;;
21862;SDS011;11096;51.338;12.524;2023-11-19T12:05:21;7.75;;;1.90;;
21862;SDS011;11096;51.338;12.524;2023-11-19T12:07:59;13.95;;;2.33;;
21862;SDS011;11096;51.338;12.524;2023-11-19T12:10:30;14.25;;;2.60;;
21862;SDS011;11096;51.338;12.524;2023-11-19T12:13:04;11.77;;;2.13;;
21862;SDS011;11096;51.338;12.524;2023-11-19T12:15:32;8.98;;;2.22;;
21862;SDS011;11096;51.338;12.524;2023-11-19T12:17:57;9.35;;;2.33;;
21862;SDS011;11096;51.338;12.524;2023-11-19T12:20:24;12.95;;;2.38;;
21862;SDS011;11096;51.338;12.524;2023-11-19T12:22:51;11.02;;;3.47;;
21862;SDS011;11096;51.338;12.524;2023-11-19T12:25:17;20.13;;;7.15;;
21862;SDS011;11096;51.338;12.524;2023-11-19T12:27:45;16.23;;;3.38;;
21862;SDS011;11096;51.338;12.524;2023-11-19T12:30:12;15.45;;;3.35;;
21862;SDS011;11096;51.338;12.524;2023-11-19T12:32:42;13.55;;;4.47;;
21862;SDS011;11096;51.338;12.524;2023-11-19T12:35:08;15.80;;;4.05;;
21862;SDS011;11096;51.338;12.524;2023-11-19T12:40:16;17.65;;;3.42;;
21862;SDS011;11096;51.338;12.524;2023-11-19T12:42:47;13.35;;;2.40;;
21862;SDS011;11096;51.338;12.524;2023-11-19T12:45:16;16.17;;;3.10;;
21862;SDS011;11096;51.338;12.524;2023-11-19T12:47:45;16.65;;;2.95;;
21862;SDS011;11096;51.338;12.524;2023-11-19T12:50:12;16.35;;;2.72;;
21862;SDS011;11096;51.338;12.524;2023-11-19T12:52:38;11.18;;;2.85;;
21862;SDS011;11096;51.338;12.524;2023-11-19T12:55:05;15.23;;;3.05;;
21862;SDS011;11096;51.338;12.524;2023-11-19T12:57:49;13.60;;;2.85;;
21862;SDS011;11096;51.338;12.524;2023-11-19T13:00:18;14.93;;;2.47;;
21862;SDS011;11096;51.338;12.524;2023-11-19T13:02:46;19.35;;;3.22;;
21862;SDS011;11096;51.338;12.524;2023-11-19T13:05:20;12.60;;;2.40;;
21862;SDS011;11096;51.338;12.524;2023-11-19T13:08:04;16.65;;;2.97;;
21862;SDS011;11096;51.338;12.524;2023-11-19T13:10:30;14.70;;;2.60;;
21862;SDS011;11096;51.338;12.524;2023-11-19T13:13:14;18.98;;;2.90;;
21862;SDS011;11096;51.338;12.524;2023-11-19T13:15:40;12.30;;;2.80;;
21862;SDS011;11096;51.338;12.524;2023-11-19T13:18:05;15.25;;;3.53;;
21862;SDS011;11096;51.338;12.524;2023-11-19T13:20:31;14.57;;;3.10;;
21862;SDS011;11096;51.338;12.524;2023-11-19T13:22:58;12.38;;;2.63;;
21862;SDS011;11096;51.338;12.524;2023-11-19T13:25:25;19.30;;;3.30;;
21862;SDS011;11096;51.338;12.524;2023-11-19T13:27:53;17.02;;;3.35;;
21862;SDS011;11096;51.338;12.524;2023-11-19T13:30:20;17.27;;;3.13;;
21862;SDS011;11096;51.338;12.524;2023-11-19T13:32:47;12.18;;;2.30;;
21862;SDS011;11096;51.338;12.524;2023-11-19T13:35:13;17.13;;;3.10;;
21862;SDS011;11096;51.338;12.524;2023-11-19T13:37:38;12.27;;;2.72;;
21862;SDS011;11096;51.338;12.524;2023-11-19T13:40:05;13.40;;;2.58;;
21862;SDS011;11096;51.338;12.524;2023-11-19T13:42:32;16.23;;;2.95;;
21862;SDS011;11096;51.338;12.524;2023-11-19T13:44:57;18.77;;;3.00;;
21862;SDS011;11096;51.338;12.524;2023-11-19T13:47:22;14.02;;;2.83;;
21862;SDS011;11096;51.338;12.524;2023-11-19T13:49:49;15.35;;;2.67;;
21862;SDS011;11096;51.338;12.524;2023-11-19T13:52:15;12.63;;;2.28;;
21862;SDS011;11096;51.338;12.524;2023-11-19T13:54:40;15.45;;;2.30;;
21862;SDS011;11096;51.338;12.524;2023-11-19T13:57:06;13.70;;;2.20;;
21862;SDS011;11096;51.338;12.524;2023-11-19T13:59:31;15.07;;;2.70;;
21862;SDS011;11096;51.338;12.524;2023-11-19T14:01:59;13.50;;;3.30;;
21862;SDS011;11096;51.338;12.524;2023-11-19T14:04:25;16.50;;;3.00;;
21862;SDS011;11096;51.338;12.524;2023-11-19T14:06:51;23.35;;;2.60;;
21862;SDS011;11096;51.338;12.524;2023-11-19T14:09:16;15.38;;;2.88;;
21862;SDS011;11096;51.338;12.524;2023-11-19T14:11:42;17.27;;;2.42;;
21862;SDS011;11096;51.338;12.524;2023-11-19T14:14:08;21.10;;;3.08;;
21862;SDS011;11096;51.338;12.524;2023-11-19T14:16:33;17.63;;;2.85;;
21862;SDS011;11096;51.338;12.524;2023-11-19T14:18:59;16.27;;;2.55;;
21862;SDS011;11096;51.338;12.524;2023-11-19T14:21:25;19.65;;;3.25;;
21862;SDS011;11096;51.338;12.524;2023-11-19T14:23:51;17.92;;;2.60;;
21862;SDS011;11096;51.338;12.524;2023-11-19T14:26:17;11.70;;;2.38;;
21862;SDS011;11096;51.338;12.524;2023-11-19T14:28:43;15.68;;;2.80;;
21862;SDS011;11096;51.338;12.524;2023-11-19T14:31:08;18.23;;;3.15;;
21862;SDS011;11096;51.338;12.524;2023-11-19T14:33:33;22.52;;;3.38;;
21862;SDS011;11096;51.338;12.524;2023-11-19T14:36:01;15.65;;;3.05;;
21862;SDS011;11096;51.338;12.524;2023-11-19T14:38:26;13.73;;;2.38;;
21862;SDS011;11096;51.338;12.524;2023-11-19T14:40:52;18.20;;;3.25;;
21862;SDS011;11096;51.338;12.524;2023-11-19T14:43:17;21.50;;;2.70;;
21862;SDS011;11096;51.338;12.524;2023-11-19T14:45:42;14.95;;;2.60;;
21862;SDS011;11096;51.338;12.524;2023-11-19T14:48:08;13.52;;;2.70;;